Euskara    
Meteorología y climatología de Navarra
Datos de la estación - Meteo Navarra

Estación de Tudela (Montes del Cierzo) GN

Altitud 314 m.


Datos desde el 23/02/2021 hasta el 24/02/2021 en horario solar
Los datos son PROVISIONALES

Anterior Página 1 de 1 Siguiente Descargar: Formato para Excel 2000 o superior   Formato csv   Formato para OpenOffice Calc
Fecha Temperatura Humedad relativa Radiación global Insolación Precipitación Vel. viento 10 m Vel. viento 10 m Dir. viento 10 m
°C % W/m² s l/m² m/s km/h °
23/02/2021 0:00 6.8 87 0.0 0 0.0 2.2 7.8 212
23/02/2021 0:10 6.1 88 0.0 0 0.0 2.4 8.7 214
23/02/2021 0:20 6.1 89 0.0 0 0.0 1.8 6.4 213
23/02/2021 0:30 6.4 90 0.0 0 0.0 1.0 3.5 148
23/02/2021 0:40 6.3 90 0.0 0 0.0 0.9 3.3 87
23/02/2021 0:50 6.3 90 0.0 0 0.0 1.3 4.8 105
23/02/2021 1:00 6.3 90 0.0 0 0.0 2.2 7.8 117
23/02/2021 1:10 6.5 91 0.0 0 0.0 2.3 8.2 122
23/02/2021 1:20 6.5 91 0.0 0 0.0 2.0 7.1 107
23/02/2021 1:30 6.5 92 0.0 0 0.0 1.7 6.1 114
23/02/2021 1:40 6.5 92 0.0 0 0.0 1.3 4.7 114
23/02/2021 1:50 6.6 92 0.0 0 0.0 1.5 5.4 145
23/02/2021 2:00 6.9 92 0.0 0 0.0 2.0 7.1 173
23/02/2021 2:10 7.1 92 0.0 0 0.0 1.3 4.6 163
23/02/2021 2:20 7.2 91 0.0 0 0.0 2.4 8.7 148
23/02/2021 2:30 7.4 91 0.0 0 0.0 3.4 12.3 155
23/02/2021 2:40 7.4 91 0.0 0 0.0 4.0 14.3 154
23/02/2021 2:50 7.4 91 0.0 0 0.0 4.6 16.4 155
23/02/2021 3:00 7.4 91 0.0 0 0.0 4.0 14.5 158
23/02/2021 3:10 7.3 91 0.0 0 0.0 4.2 15.1 156
23/02/2021 3:20 7.4 91 0.0 0 0.0 4.1 14.6 173
23/02/2021 3:30 7.3 91 0.0 0 0.0 4.1 14.6 180
23/02/2021 3:40 7.2 91 0.0 0 0.0 3.9 14.0 163
23/02/2021 3:50 7.0 91 0.0 0 0.0 4.0 14.4 157
23/02/2021 4:00 6.7 92 0.0 0 0.0 3.8 13.8 155
23/02/2021 4:10 6.7 92 0.0 0 0.0 3.9 14.1 157
23/02/2021 4:20 6.9 93 0.0 0 0.0 4.0 14.5 155
23/02/2021 4:30 7.0 92 0.0 0 0.0 4.5 16.2 150
23/02/2021 4:40 7.0 92 0.0 0 0.0 4.6 16.6 156
23/02/2021 4:50 7.0 92 0.0 0 0.0 4.6 16.6 157
23/02/2021 5:00 7.0 92 0.0 0 0.0 4.5 16.3 152
23/02/2021 5:10 7.0 92 0.0 0 0.0 3.8 13.5 164
23/02/2021 5:20 7.2 92 0.0 0 0.0 4.2 14.9 138
23/02/2021 5:30 7.1 92 0.0 0 0.0 3.5 12.7 147
23/02/2021 5:40 7.1 92 0.0 0 0.0 3.0 10.7 165
23/02/2021 5:50 7.1 92 0.0 0 0.0 2.9 10.5 158
23/02/2021 6:00 7.0 92 0.0 0 0.0 2.5 8.8 163
23/02/2021 6:10 6.8 92 0.0 0 0.0 2.0 7.1 165
23/02/2021 6:20 6.4 92 0.0 0 0.0 2.4 8.8 180
23/02/2021 6:30 6.0 93 0.0 0 0.0 2.6 9.3 181
23/02/2021 6:40 6.0 93 0.0 0 0.0 2.9 10.4 170
23/02/2021 6:50 6.0 94 0.0 0 0.0 3.2 11.4 183
23/02/2021 7:00 5.9 94 0.0 0 0.0 3.2 11.4 171
23/02/2021 7:10 5.9 94 5.5 0 0.0 3.3 11.8 179
23/02/2021 7:20 6.0 94 38.7 532 0.0 3.0 10.7 185
23/02/2021 7:30 6.2 94 55.8 600 0.0 2.9 10.3 153
23/02/2021 7:40 6.6 94 92.8 600 0.0 3.4 12.1 161
23/02/2021 7:50 6.9 93 117.8 600 0.0 3.7 13.2 159
23/02/2021 8:00 7.1 93 148.5 600 0.0 3.6 13.1 158
23/02/2021 8:10 7.3 92 185.8 600 0.0 3.6 12.8 158
23/02/2021 8:20 7.5 91 203.0 576 0.0 3.8 13.5 156
23/02/2021 8:30 7.7 91 244.4 592 0.0 4.1 14.7 152
23/02/2021 8:40 8.0 90 279.8 600 0.0 5.1 18.3 137
23/02/2021 8:50 8.1 89 239.0 470 0.0 5.4 19.3 135
23/02/2021 9:00 8.1 90 298.2 512 0.0 5.2 18.7 140
23/02/2021 9:10 8.5 89 365.3 578 0.0 5.0 18.1 147
23/02/2021 9:20 8.9 86 380.8 580 0.0 5.3 19.0 146
23/02/2021 9:30 9.1 85 435.2 600 0.0 5.9 21.4 144
23/02/2021 9:40 9.4 84 463.5 600 0.0 6.5 23.3 144
23/02/2021 9:50 9.6 84 483.1 600 0.0 6.0 21.6 146
23/02/2021 10:00 9.8 83 507.2 600 0.0 6.1 21.9 152
23/02/2021 10:10 10.1 82 530.7 600 0.0 6.1 21.8 153
23/02/2021 10:20 10.4 79 554.8 600 0.0 6.2 22.2 155
23/02/2021 10:30 10.8 78 573.1 600 0.0 6.2 22.5 157
23/02/2021 10:40 11.2 76 591.4 600 0.0 6.1 22.0 149
23/02/2021 10:50 11.4 74 610.2 600 0.0 5.8 21.0 156
23/02/2021 11:00 11.5 74 622.8 600 0.0 6.0 21.7 146
23/02/2021 11:10 11.8 73 636.7 600 0.0 6.5 23.4 147
23/02/2021 11:20 12.2 72 649.3 600 0.0 6.9 24.7 139
23/02/2021 11:30 12.2 68 662.3 600 0.0 6.8 24.4 152
23/02/2021 11:40 12.4 67 671.4 600 0.0 6.6 23.6 142
23/02/2021 11:50 12.4 66 681.0 600 0.0 7.7 27.7 143
23/02/2021 12:00 12.6 68 685.7 600 0.0 7.3 26.3 139
23/02/2021 12:10 12.9 68 690.3 600 0.0 7.0 25.2 137
23/02/2021 12:20 13.2 68 693.4 600 0.0 6.6 23.8 133
23/02/2021 12:30 13.1 66 693.5 600 0.0 7.8 27.9 135
23/02/2021 12:40 13.1 65 690.5 600 0.0 7.8 28.0 132
23/02/2021 12:50 13.3 65 686.3 600 0.0 8.5 30.6 137
23/02/2021 13:00 13.3 63 680.9 600 0.0 9.2 33.0 139
23/02/2021 13:10 13.5 63 673.1 600 0.0 8.7 31.2 136
23/02/2021 13:20 13.7 61 660.2 600 0.0 8.0 28.9 138
23/02/2021 13:30 13.7 62 647.0 600 0.0 8.4 30.4 140
23/02/2021 13:40 13.9 62 627.7 600 0.0 8.4 30.1 139
23/02/2021 13:50 14.1 62 621.0 600 0.0 8.3 30.0 137
23/02/2021 14:00 14.3 62 603.1 600 0.0 7.8 28.0 144
23/02/2021 14:10 14.3 60 580.8 600 0.0 8.2 29.4 145
23/02/2021 14:20 14.3 59 547.7 600 0.0 8.6 31.0 150
23/02/2021 14:30 14.4 61 517.8 600 0.0 8.1 29.3 140
23/02/2021 14:40 14.4 59 498.3 600 0.0 8.2 29.6 140
23/02/2021 14:50 14.5 58 480.9 600 0.0 9.0 32.5 142
23/02/2021 15:00 14.6 59 457.4 600 0.0 8.2 29.7 142
23/02/2021 15:10 14.6 57 429.9 600 0.0 8.6 30.9 140
23/02/2021 15:20 14.7 57 393.3 600 0.0 7.9 28.5 143
23/02/2021 15:30 14.6 56 369.2 600 0.0 7.9 28.5 142
23/02/2021 15:40 14.6 57 348.4 600 0.0 7.8 28.0 144
23/02/2021 15:50 14.6 57 313.4 600 0.0 7.4 26.6 140
23/02/2021 16:00 14.5 55 281.5 600 0.0 7.2 25.8 146
23/02/2021 16:10 14.4 58 249.0 600 0.0 6.7 24.0 144
23/02/2021 16:20 14.3 58 216.8 600 0.0 7.4 26.5 143
23/02/2021 16:30 14.2 59 176.4 546 0.0 6.7 24.1 147
23/02/2021 16:40 14.0 60 81.3 16 0.0 6.6 23.7 149
23/02/2021 16:50 13.8 61 64.9 0 0.0 6.2 22.3 151
23/02/2021 17:00 13.6 61 50.3 0 0.0 5.9 21.3 153
23/02/2021 17:10 13.4 61 42.1 0 0.0 6.4 23.0 151
23/02/2021 17:20 13.2 62 31.8 0 0.0 6.3 22.6 154
23/02/2021 17:30 13.0 63 22.4 0 0.0 6.6 23.6 152
23/02/2021 17:40 12.7 64 4.9 0 0.0 6.0 21.6 153
23/02/2021 17:50 12.5 66 0.0 0 0.0 5.6 20.2 156
23/02/2021 18:00 12.2 68 0.0 0 0.0 5.4 19.5 155
23/02/2021 18:10 12.1 68 0.0 0 0.0 5.4 19.5 157
23/02/2021 18:20 11.7 70 0.0 0 0.0 5.3 19.1 157
23/02/2021 18:30 11.5 71 0.0 0 0.0 5.1 18.3 154
23/02/2021 18:40 11.5 72 0.0 0 0.0 5.2 18.8 154
23/02/2021 18:50 11.5 72 0.0 0 0.0 5.7 20.5 154
23/02/2021 19:00 11.3 73 0.0 0 0.0 5.9 21.2 157
23/02/2021 19:10 11.0 73 0.0 0 0.0 5.7 20.5 161
23/02/2021 19:20 10.9 74 0.0 0 0.0 5.5 19.9 153
23/02/2021 19:30 11.1 73 0.0 0 0.0 4.9 17.7 152
23/02/2021 19:40 10.5 75 0.0 0 0.0 4.3 15.6 154
23/02/2021 19:50 10.2 77 0.0 0 0.0 3.9 14.0 153
23/02/2021 20:00 10.3 78 0.0 0 0.0 3.6 13.0 149
23/02/2021 20:10 10.2 78 0.0 0 0.0 3.7 13.1 161
23/02/2021 20:20 9.8 78 0.0 0 0.0 3.5 12.5 165
23/02/2021 20:30 9.8 80 0.0 0 0.0 4.1 14.8 164
23/02/2021 20:40 9.9 80 0.0 0 0.0 4.7 17.0 163
23/02/2021 20:50 10.1 79 0.0 0 0.0 5.5 19.7 164
23/02/2021 21:00 10.4 78 0.0 0 0.0 5.4 19.3 168
23/02/2021 21:10 10.5 77 0.0 0 0.0 5.4 19.3 170
23/02/2021 21:20 10.4 77 0.0 0 0.0 5.3 19.1 171
23/02/2021 21:30 10.2 78 0.0 0 0.0 5.5 19.8 167
23/02/2021 21:40 10.1 79 0.0 0 0.0 5.5 19.7 168
23/02/2021 21:50 10.0 79 0.0 0 0.0 5.7 20.4 165
23/02/2021 22:00 10.0 79 0.0 0 0.0 5.7 20.6 163
23/02/2021 22:10 10.0 80 0.0 0 0.0 5.5 19.9 162
23/02/2021 22:20 10.0 80 0.0 0 0.0 5.5 19.7 163
23/02/2021 22:30 9.8 81 0.0 0 0.0 5.2 18.8 166
23/02/2021 22:40 9.8 81 0.0 0 0.0 5.0 18.1 164
23/02/2021 22:50 9.8 81 0.0 0 0.0 5.1 18.3 154
23/02/2021 23:00 10.0 80 0.0 0 0.0 5.2 18.8 155
23/02/2021 23:10 9.8 81 0.0 0 0.0 4.3 15.3 149
23/02/2021 23:20 9.6 82 0.0 0 0.0 4.1 14.6 154
23/02/2021 23:30 9.4 83 0.0 0 0.0 3.4 12.2 143
23/02/2021 23:40 9.2 84 0.0 0 0.0 3.7 13.5 141
23/02/2021 23:50 9.0 84 0.0 0 0.0 3.9 14.0 137
Anterior Página 1 de 1 Siguiente

NOTA: Tipo de datos según el color:
   - Valores diarios o 10 minutos correctos
   - Valores diarios calculados a partir de un número de datos 10 minutos menor que 144 y mayor que 120, o de un número de datos semihorarios menor que 48 y mayor que 40 (caso de las estaciones de INTIA Y Ministerio)
   - Valores diez minutos estimados


Contacto        Enlaces        Aviso legal